createdAt,value
2023-10-09T00:02:11.682Z,100.00
2023-10-09T00:04:44.177Z,100.00
2023-10-09T00:07:12.222Z,100.00
2023-10-09T00:09:49.713Z,100.00
2023-10-09T00:12:23.200Z,100.00
2023-10-09T00:14:56.564Z,100.00
2023-10-09T00:17:25.416Z,100.00
2023-10-09T00:19:53.363Z,100.00
2023-10-09T00:22:21.121Z,100.00
2023-10-09T00:24:51.344Z,100.00
2023-10-09T00:27:22.528Z,100.00
2023-10-09T00:29:50.527Z,100.00
2023-10-09T00:32:18.962Z,100.00
2023-10-09T00:34:51.475Z,100.00
2023-10-09T00:37:23.661Z,100.00
2023-10-09T00:39:57.980Z,100.00
2023-10-09T00:42:34.652Z,100.00
2023-10-09T00:45:05.640Z,100.00
2023-10-09T00:47:36.254Z,100.00
2023-10-09T00:50:15.802Z,100.00
2023-10-09T00:52:53.080Z,100.00
2023-10-09T00:55:22.599Z,100.00
2023-10-09T00:57:59.544Z,100.00
2023-10-09T01:00:33.940Z,100.00
2023-10-09T01:03:17.187Z,100.00
2023-10-09T01:05:53.537Z,100.00
2023-10-09T01:11:30.410Z,100.00
2023-10-09T01:14:09.491Z,100.00
2023-10-09T01:16:36.668Z,100.00
2023-10-09T01:19:14.771Z,100.00
2023-10-09T01:21:41.955Z,100.00
2023-10-09T01:24:11.941Z,100.00
2023-10-09T01:26:41.220Z,100.00
2023-10-09T01:29:15.865Z,100.00
2023-10-09T01:31:53.239Z,100.00
2023-10-09T01:34:25.250Z,100.00
2023-10-09T01:36:56.341Z,100.00
2023-10-09T01:39:40.951Z,100.00
2023-10-09T01:42:08.068Z,100.00
2023-10-09T01:44:44.492Z,100.00
2023-10-09T01:47:19.846Z,100.00
2023-10-09T01:49:50.579Z,100.00
2023-10-09T01:52:17.947Z,100.00
2023-10-09T01:54:51.945Z,100.00
2023-10-09T01:57:24.296Z,100.00
2023-10-09T01:59:56.181Z,100.00
2023-10-09T02:02:35.447Z,100.00
2023-10-09T02:05:16.288Z,100.00
2023-10-09T02:07:52.535Z,100.00
2023-10-09T02:10:30.934Z,100.00
2023-10-09T02:13:07.708Z,100.00
2023-10-09T02:15:43.599Z,100.00
2023-10-09T02:18:38.197Z,100.00
2023-10-09T02:21:13.842Z,100.00
2023-10-09T02:23:46.836Z,100.00
2023-10-09T02:26:20.757Z,100.00
2023-10-09T02:29:01.234Z,100.00
2023-10-09T02:31:37.045Z,100.00
2023-10-09T02:34:06.515Z,100.00
2023-10-09T02:36:37.010Z,100.00
2023-10-09T02:39:06.812Z,100.00
2023-10-09T02:41:35.601Z,100.00
2023-10-09T02:44:12.367Z,100.00
2023-10-09T02:46:41.278Z,100.00
2023-10-09T02:49:11.040Z,100.00
2023-10-09T02:51:44.261Z,100.00
2023-10-09T02:54:23.417Z,100.00
2023-10-09T02:56:57.870Z,100.00
2023-10-09T02:59:25.164Z,100.00
2023-10-09T03:01:55.370Z,100.00
2023-10-09T03:04:25.047Z,100.00
2023-10-09T03:06:52.472Z,100.00
2023-10-09T03:09:27.479Z,100.00
2023-10-09T03:12:10.921Z,100.00
2023-10-09T03:14:39.541Z,100.00
2023-10-09T03:17:12.168Z,100.00
2023-10-09T03:19:39.425Z,100.00
2023-10-09T03:22:12.893Z,100.00
2023-10-09T03:24:48.740Z,100.00
2023-10-09T03:27:18.114Z,100.00
2023-10-09T03:29:50.847Z,100.00
2023-10-09T03:32:18.101Z,100.00
2023-10-09T03:34:45.198Z,100.00
2023-10-09T03:37:35.457Z,100.00
2023-10-09T03:40:05.330Z,100.00
2023-10-09T03:42:34.613Z,100.00
2023-10-09T03:45:02.056Z,100.00
2023-10-09T03:47:29.334Z,100.00
2023-10-09T03:49:57.142Z,100.00
2023-10-09T03:52:28.463Z,100.00
2023-10-09T03:54:55.858Z,100.00
2023-10-09T03:57:24.744Z,100.00
2023-10-09T03:59:53.073Z,100.00
2023-10-09T04:02:23.070Z,100.00
2023-10-09T04:04:51.620Z,100.00
2023-10-09T04:07:19.428Z,100.00
2023-10-09T04:09:49.179Z,100.00
2023-10-09T04:12:26.095Z,100.00
2023-10-09T04:14:59.174Z,100.00
2023-10-09T04:17:36.107Z,100.00
2023-10-09T04:20:20.518Z,100.00
2023-10-09T04:23:01.481Z,100.00
2023-10-09T04:25:41.807Z,100.00
2023-10-09T04:28:20.506Z,100.00
2023-10-09T04:30:54.586Z,100.00
2023-10-09T04:33:34.906Z,100.00
2023-10-09T04:36:23.107Z,100.00
2023-10-09T04:39:03.828Z,100.00
2023-10-09T04:41:53.165Z,100.00
2023-10-09T04:44:23.837Z,100.00
2023-10-09T04:47:13.324Z,100.00
2023-10-09T04:49:57.577Z,100.00
2023-10-09T04:52:30.378Z,100.00
2023-10-09T04:55:10.106Z,100.00
2023-10-09T04:57:42.563Z,100.00
2023-10-09T05:00:35.935Z,100.00
2023-10-09T05:03:10.273Z,100.00
2023-10-09T05:05:44.758Z,100.00
2023-10-09T05:08:21.045Z,100.00
2023-10-09T05:10:59.088Z,100.00
2023-10-09T05:13:39.922Z,100.00
2023-10-09T05:16:27.538Z,100.00
2023-10-09T05:19:00.966Z,100.00
2023-10-09T05:21:32.853Z,100.00
2023-10-09T05:24:14.078Z,100.00
2023-10-09T05:26:49.446Z,100.00
2023-10-09T05:29:34.137Z,100.00
2023-10-09T05:32:10.411Z,100.00
2023-10-09T05:34:55.685Z,100.00
2023-10-09T05:37:35.687Z,100.00
2023-10-09T05:40:19.411Z,100.00
2023-10-09T05:42:58.506Z,100.00
2023-10-09T05:45:45.490Z,100.00
2023-10-09T05:48:15.375Z,100.00
2023-10-09T05:51:01.202Z,100.00
2023-10-09T05:53:48.591Z,100.00
2023-10-09T05:56:34.732Z,100.00
2023-10-09T05:59:20.482Z,100.00
2023-10-09T06:01:59.762Z,100.00
2023-10-09T06:04:51.176Z,100.00
2023-10-09T06:07:24.565Z,100.00
2023-10-09T06:09:55.672Z,100.00
2023-10-09T06:12:34.061Z,100.00
2023-10-09T06:15:31.091Z,100.00
2023-10-09T06:18:18.192Z,100.00
2023-10-09T06:21:03.754Z,100.00
2023-10-09T06:23:49.430Z,100.00
2023-10-09T06:26:25.735Z,100.00
2023-10-09T06:29:11.907Z,100.00
2023-10-09T06:31:57.681Z,100.00
2023-10-09T06:34:33.644Z,100.00
2023-10-09T06:37:08.772Z,100.00
2023-10-09T06:39:51.584Z,100.00
2023-10-09T06:42:36.950Z,100.00
2023-10-09T06:45:17.790Z,100.00
2023-10-09T06:48:08.989Z,100.00
2023-10-09T06:50:55.420Z,100.00
2023-10-09T06:53:27.605Z,100.00
2023-10-09T06:56:07.318Z,100.00
2023-10-09T06:58:43.870Z,100.00
2023-10-09T07:01:40.743Z,100.00
2023-10-09T07:04:20.312Z,100.00
2023-10-09T07:06:50.025Z,100.00
2023-10-09T07:09:19.851Z,100.00
2023-10-09T07:11:49.377Z,100.00
2023-10-09T07:14:33.443Z,100.00
2023-10-09T07:17:27.689Z,100.00
2023-10-09T07:19:55.173Z,100.00
2023-10-09T07:22:23.012Z,100.00
2023-10-09T07:24:57.743Z,100.00
2023-10-09T07:27:43.289Z,100.00
2023-10-09T07:30:31.213Z,100.00
2023-10-09T07:33:11.939Z,100.00
2023-10-09T07:35:44.653Z,100.00
2023-10-09T07:38:21.642Z,100.00
2023-10-09T07:40:56.903Z,100.00
2023-10-09T07:43:36.596Z,100.00
2023-10-09T07:46:23.022Z,100.00
2023-10-09T07:48:53.183Z,100.00
2023-10-09T07:51:24.445Z,100.00
2023-10-09T07:53:58.168Z,100.00
2023-10-09T07:56:26.120Z,100.00
2023-10-09T07:58:53.350Z,100.00
2023-10-09T08:01:29.268Z,100.00
2023-10-09T08:04:03.186Z,100.00
2023-10-09T08:06:39.355Z,100.00
2023-10-09T08:09:21.062Z,100.00
2023-10-09T08:11:57.021Z,100.00
2023-10-09T08:14:36.163Z,100.00
2023-10-09T08:17:35.365Z,100.00
2023-10-09T08:20:12.652Z,100.00
2023-10-09T08:22:51.345Z,100.00
2023-10-09T08:25:29.057Z,100.00
2023-10-09T08:28:19.906Z,100.00
2023-10-09T08:31:04.042Z,100.00
2023-10-09T08:34:24.309Z,100.00
2023-10-09T08:39:00.149Z,100.00
2023-10-09T08:41:31.075Z,100.00
2023-10-09T08:43:58.722Z,100.00
2023-10-09T08:46:30.524Z,100.00
2023-10-09T08:48:59.862Z,100.00
2023-10-09T08:51:28.635Z,100.00
2023-10-09T08:53:56.304Z,100.00
2023-10-09T08:56:24.189Z,100.00
2023-10-09T08:58:57.082Z,100.00
2023-10-09T09:01:26.761Z,100.00
2023-10-09T09:03:57.520Z,100.00
2023-10-09T09:06:24.757Z,100.00
2023-10-09T09:09:00.466Z,100.00
2023-10-09T09:11:31.482Z,100.00
2023-10-09T09:14:06.574Z,100.00
2023-10-09T09:16:36.408Z,100.00
2023-10-09T09:19:18.368Z,100.00
2023-10-09T09:22:00.070Z,100.00
2023-10-09T09:24:27.197Z,100.00
2023-10-09T09:27:10.618Z,100.00
2023-10-09T09:29:40.120Z,100.00
2023-10-09T09:32:19.243Z,100.00
2023-10-09T09:34:49.486Z,100.00
2023-10-09T09:37:21.709Z,100.00
2023-10-09T09:39:55.894Z,100.00
2023-10-09T09:42:27.969Z,100.00
2023-10-09T09:44:56.888Z,100.00
2023-10-09T09:47:28.367Z,100.00
2023-10-09T09:50:13.708Z,99.74
2023-10-09T09:52:41.124Z,100.00
2023-10-09T09:55:23.429Z,100.00
2023-10-09T09:57:54.049Z,100.00
2023-10-09T10:00:41.660Z,99.15
2023-10-09T10:03:44.867Z,100.00
2023-10-09T10:06:13.752Z,99.78
2023-10-09T10:08:42.923Z,98.87
2023-10-09T10:11:46.752Z,99.39
2023-10-09T10:14:29.788Z,97.81
2023-10-09T10:17:18.404Z,98.52
2023-10-09T10:20:26.496Z,98.95
2023-10-09T10:23:18.382Z,96.72
2023-10-09T10:25:50.450Z,95.44
2023-10-09T10:28:40.277Z,97.61
2023-10-09T10:31:10.542Z,95.02
2023-10-09T10:33:54.824Z,95.40
2023-10-09T10:36:29.415Z,94.67
2023-10-09T10:39:11.445Z,93.36
2023-10-09T10:41:51.692Z,95.17
2023-10-09T10:44:35.397Z,94.48
2023-10-09T10:47:03.307Z,94.40
2023-10-09T10:49:41.752Z,93.82
2023-10-09T10:52:18.509Z,94.35
2023-10-09T10:54:45.672Z,94.66
2023-10-09T10:57:38.592Z,92.95
2023-10-09T11:00:30.883Z,92.50
2023-10-09T11:03:15.023Z,92.42
2023-10-09T11:05:43.629Z,92.34
2023-10-09T11:08:12.062Z,91.65
2023-10-09T11:10:51.272Z,91.42
2023-10-09T11:13:32.938Z,91.79
2023-10-09T11:16:38.343Z,91.17
2023-10-09T11:19:14.260Z,91.70
2023-10-09T11:21:41.778Z,90.73
2023-10-09T11:24:31.239Z,90.58
2023-10-09T11:27:06.389Z,90.04
2023-10-09T11:29:43.739Z,90.42
2023-10-09T11:32:19.900Z,89.19
2023-10-09T11:34:55.185Z,89.33
2023-10-09T11:37:29.905Z,90.73
2023-10-09T11:40:01.569Z,88.65
2023-10-09T11:42:50.120Z,87.92
2023-10-09T11:45:26.036Z,88.24
2023-10-09T11:48:00.589Z,86.99
2023-10-09T11:50:51.759Z,86.12
2023-10-09T11:53:23.477Z,86.78
2023-10-09T11:55:53.414Z,86.59
2023-10-09T11:58:25.936Z,85.35
2023-10-09T12:00:58.055Z,85.99
2023-10-09T12:03:31.242Z,86.12
2023-10-09T12:06:05.382Z,85.27
2023-10-09T12:08:33.397Z,85.76
2023-10-09T12:11:05.386Z,84.52
2023-10-09T12:13:32.688Z,84.48
2023-10-09T12:15:59.861Z,84.61
2023-10-09T12:18:27.205Z,84.96
2023-10-09T12:20:57.108Z,83.58
2023-10-09T12:23:28.924Z,83.55
2023-10-09T12:25:57.822Z,81.88
2023-10-09T12:28:25.146Z,80.19
2023-10-09T12:30:52.325Z,82.53
2023-10-09T12:33:21.030Z,81.40
2023-10-09T12:35:48.636Z,81.17
2023-10-09T12:38:20.210Z,77.54
2023-10-09T12:40:51.818Z,77.16
2023-10-09T12:43:20.814Z,79.13
2023-10-09T12:45:48.042Z,77.98
2023-10-09T12:48:16.524Z,77.90
2023-10-09T12:50:45.282Z,78.28
2023-10-09T12:53:14.064Z,77.41
2023-10-09T12:55:45.048Z,78.29
2023-10-09T12:58:17.101Z,76.86
2023-10-09T13:00:50.501Z,78.66
2023-10-09T13:03:18.783Z,78.88
2023-10-09T13:05:57.303Z,78.14
2023-10-09T13:08:37.525Z,78.46
2023-10-09T13:11:12.706Z,81.72
2023-10-09T13:13:41.488Z,80.36
2023-10-09T13:16:24.160Z,81.22
2023-10-09T13:18:52.133Z,80.03
2023-10-09T13:21:25.536Z,79.39
2023-10-09T13:23:53.151Z,79.48
2023-10-09T13:26:32.439Z,78.15
2023-10-09T13:29:02.366Z,78.47
2023-10-09T13:31:33.062Z,78.76
2023-10-09T13:34:02.156Z,78.22
2023-10-09T13:36:33.100Z,78.54
2023-10-09T13:39:23.760Z,81.20
2023-10-09T13:41:58.894Z,81.38
2023-10-09T13:44:29.731Z,80.63
2023-10-09T13:47:06.780Z,83.50
2023-10-09T13:49:35.080Z,85.43
2023-10-09T13:52:03.867Z,81.57
2023-10-09T13:54:34.766Z,81.87
2023-10-09T13:57:05.706Z,81.94
2023-10-09T13:59:36.512Z,81.86
2023-10-09T14:02:11.137Z,82.83
2023-10-09T14:04:38.928Z,82.17
2023-10-09T14:07:09.607Z,83.44
2023-10-09T14:09:39.753Z,82.49
2023-10-09T14:12:08.424Z,82.81
2023-10-09T14:14:41.790Z,82.21
2023-10-09T14:17:15.040Z,83.28
2023-10-09T14:19:48.779Z,84.50
2023-10-09T14:22:17.628Z,83.03
2023-10-09T14:24:49.138Z,88.40
2023-10-09T14:27:18.725Z,83.79
2023-10-09T14:29:46.969Z,84.08
2023-10-09T14:32:15.028Z,84.22
2023-10-09T14:34:47.356Z,84.97
2023-10-09T14:37:16.163Z,83.65
2023-10-09T14:39:46.217Z,85.17
2023-10-09T14:42:13.997Z,84.51
2023-10-09T14:44:42.074Z,84.30
2023-10-09T14:47:09.268Z,83.82
2023-10-09T14:49:39.262Z,84.29
2023-10-09T14:52:09.469Z,83.52
2023-10-09T14:54:37.087Z,82.86
2023-10-09T14:57:07.394Z,84.13
2023-10-09T14:59:34.839Z,84.70
2023-10-09T15:02:02.240Z,84.14
2023-10-09T15:04:29.421Z,84.44
2023-10-09T15:06:56.491Z,84.99
2023-10-09T15:09:23.981Z,83.95
2023-10-09T15:11:51.993Z,83.75
2023-10-09T15:14:22.156Z,84.35
2023-10-09T15:16:49.512Z,83.84
2023-10-09T15:19:18.109Z,84.16
2023-10-09T15:21:45.385Z,84.54
2023-10-09T15:24:20.468Z,84.24
2023-10-09T15:26:54.624Z,84.78
2023-10-09T15:29:28.961Z,85.99
2023-10-09T15:31:57.795Z,85.75
2023-10-09T15:34:25.881Z,85.83
2023-10-09T15:36:54.530Z,86.34
2023-10-09T15:39:21.748Z,86.33
2023-10-09T15:41:49.844Z,86.75
2023-10-09T15:44:18.440Z,87.27
2023-10-09T15:46:48.641Z,87.88
2023-10-09T15:49:16.442Z,90.17
2023-10-09T15:51:44.687Z,89.42
2023-10-09T15:54:13.744Z,88.50
2023-10-09T15:56:46.105Z,89.57
2023-10-09T15:59:17.770Z,89.53
2023-10-09T16:01:45.254Z,89.83
2023-10-09T16:04:12.889Z,90.57
2023-10-09T16:06:40.961Z,90.60
2023-10-09T16:09:16.436Z,91.53
2023-10-09T16:11:45.364Z,91.73
2023-10-09T16:14:12.468Z,93.13
2023-10-09T16:16:42.642Z,92.66
2023-10-09T16:19:10.699Z,93.21
2023-10-09T16:21:38.864Z,93.64
2023-10-09T16:24:07.258Z,94.08
2023-10-09T16:26:46.546Z,94.50
2023-10-09T16:29:13.789Z,94.73
2023-10-09T16:31:42.024Z,95.32
2023-10-09T16:34:09.936Z,95.45
2023-10-09T16:36:38.019Z,96.80
2023-10-09T16:39:05.350Z,96.82
2023-10-09T16:41:40.681Z,98.29
2023-10-09T16:44:11.077Z,99.03
2023-10-09T16:46:41.091Z,99.55
2023-10-09T16:49:09.530Z,99.36
2023-10-09T16:51:36.697Z,100.00
2023-10-09T16:54:05.672Z,100.00
2023-10-09T16:56:34.492Z,100.00
2023-10-09T16:59:02.230Z,100.00
2023-10-09T17:01:29.588Z,100.00
2023-10-09T17:03:58.927Z,100.00
2023-10-09T17:06:29.924Z,100.00
2023-10-09T17:08:58.286Z,100.00
2023-10-09T17:11:25.750Z,100.00
2023-10-09T17:13:55.878Z,100.00
2023-10-09T17:16:25.754Z,100.00
2023-10-09T17:18:56.846Z,100.00
2023-10-09T17:21:24.934Z,100.00
2023-10-09T17:23:56.516Z,100.00
2023-10-09T17:26:24.150Z,100.00
2023-10-09T17:28:55.150Z,100.00
2023-10-09T17:31:24.822Z,100.00
2023-10-09T17:33:54.975Z,100.00
2023-10-09T17:36:22.769Z,100.00
2023-10-09T17:38:52.420Z,100.00
2023-10-09T17:41:22.170Z,100.00
2023-10-09T17:43:51.329Z,100.00
2023-10-09T17:46:18.934Z,100.00
2023-10-09T17:48:46.713Z,100.00
2023-10-09T17:51:15.728Z,100.00
2023-10-09T17:53:44.151Z,100.00
2023-10-09T17:56:11.644Z,100.00
2023-10-09T17:58:39.086Z,100.00
2023-10-09T18:01:07.499Z,100.00
2023-10-09T18:03:39.060Z,100.00
2023-10-09T18:06:06.487Z,100.00
2023-10-09T18:08:33.630Z,100.00
2023-10-09T18:11:01.690Z,100.00
2023-10-09T18:13:29.415Z,100.00
2023-10-09T18:16:12.689Z,100.00
2023-10-09T18:18:44.732Z,100.00
2023-10-09T18:21:11.955Z,100.00
2023-10-09T18:23:45.356Z,100.00
2023-10-09T18:26:17.239Z,100.00
2023-10-09T18:28:49.212Z,100.00
2023-10-09T18:31:17.512Z,100.00
2023-10-09T18:33:48.842Z,100.00
2023-10-09T18:36:18.751Z,100.00
2023-10-09T18:38:51.416Z,100.00
2023-10-09T18:41:19.689Z,100.00
2023-10-09T18:43:49.108Z,100.00
2023-10-09T18:46:19.427Z,100.00
2023-10-09T18:48:46.952Z,100.00
2023-10-09T18:51:20.337Z,100.00
2023-10-09T18:53:48.459Z,100.00
2023-10-09T18:56:16.859Z,100.00
2023-10-09T18:58:44.609Z,100.00
2023-10-09T19:01:14.595Z,100.00
2023-10-09T19:03:42.909Z,100.00
2023-10-09T19:06:11.102Z,100.00
2023-10-09T19:08:38.322Z,100.00
2023-10-09T19:11:11.817Z,100.00
2023-10-09T19:13:42.423Z,100.00
2023-10-09T19:16:13.037Z,100.00
2023-10-09T19:18:40.341Z,100.00
2023-10-09T19:21:10.160Z,100.00
2023-10-09T19:23:38.265Z,100.00
2023-10-09T19:26:05.604Z,100.00
2023-10-09T19:28:33.585Z,100.00
2023-10-09T19:31:10.996Z,100.00
2023-10-09T19:33:39.196Z,100.00
2023-10-09T19:36:12.700Z,100.00
2023-10-09T19:38:40.599Z,100.00
2023-10-09T19:41:11.544Z,100.00
2023-10-09T19:43:38.839Z,100.00
2023-10-09T19:46:07.048Z,100.00
2023-10-09T19:48:34.888Z,100.00
2023-10-09T19:51:08.011Z,100.00
2023-10-09T19:53:37.535Z,100.00
2023-10-09T19:56:06.922Z,100.00
2023-10-09T19:58:34.083Z,100.00
2023-10-09T20:01:01.574Z,100.00
2023-10-09T20:03:28.966Z,100.00
2023-10-09T20:05:56.177Z,100.00
2023-10-09T20:08:23.333Z,100.00
2023-10-09T20:10:51.775Z,100.00
2023-10-09T20:13:18.904Z,100.00
2023-10-09T20:15:47.045Z,100.00
2023-10-09T20:18:14.288Z,100.00
2023-10-09T20:20:46.984Z,100.00
2023-10-09T20:23:17.586Z,100.00
2023-10-09T20:25:48.181Z,100.00
2023-10-09T20:28:15.319Z,100.00
2023-10-09T20:30:42.358Z,100.00
2023-10-09T20:33:09.468Z,100.00
2023-10-09T20:35:40.607Z,100.00
2023-10-09T20:38:08.007Z,100.00
2023-10-09T20:40:35.325Z,100.00
2023-10-09T20:43:03.740Z,100.00
2023-10-09T20:45:30.906Z,100.00
2023-10-09T20:47:59.356Z,100.00
2023-10-09T20:50:27.178Z,100.00
2023-10-09T20:52:55.019Z,100.00
2023-10-09T20:55:24.320Z,100.00
2023-10-09T20:57:59.666Z,100.00
2023-10-09T21:00:28.129Z,100.00
2023-10-09T21:02:56.411Z,100.00
2023-10-09T21:05:24.469Z,100.00
2023-10-09T21:07:55.105Z,100.00
2023-10-09T21:10:22.562Z,100.00
2023-10-09T21:12:52.937Z,100.00
2023-10-09T21:15:27.679Z,100.00
2023-10-09T21:17:55.044Z,100.00
2023-10-09T21:20:26.551Z,100.00
2023-10-09T21:22:56.485Z,100.00
2023-10-09T21:25:24.837Z,100.00
2023-10-09T21:27:55.226Z,100.00
2023-10-09T21:30:24.198Z,100.00
2023-10-09T21:32:54.673Z,100.00
2023-10-09T21:35:28.336Z,100.00
2023-10-09T21:37:57.343Z,100.00
2023-10-09T21:40:30.313Z,100.00
2023-10-09T21:42:59.529Z,100.00
2023-10-09T21:45:28.135Z,100.00
2023-10-09T21:47:58.800Z,100.00
2023-10-09T21:50:28.706Z,100.00
2023-10-09T21:52:58.423Z,100.00
2023-10-09T21:55:28.446Z,100.00
2023-10-09T21:57:56.282Z,100.00
2023-10-09T22:00:33.045Z,100.00
2023-10-09T22:03:11.529Z,100.00
2023-10-09T22:05:42.710Z,100.00
2023-10-09T22:08:11.231Z,100.00
2023-10-09T22:10:39.992Z,100.00
2023-10-09T22:13:08.952Z,100.00
2023-10-09T22:15:36.141Z,100.00
2023-10-09T22:18:15.430Z,100.00
2023-10-09T22:20:47.475Z,100.00
2023-10-09T22:23:19.243Z,100.00
2023-10-09T22:25:56.856Z,100.00
2023-10-09T22:28:25.110Z,100.00
2023-10-09T22:30:56.895Z,100.00
2023-10-09T22:33:38.137Z,100.00
2023-10-09T22:36:05.518Z,100.00
2023-10-09T22:38:32.564Z,100.00
2023-10-09T22:41:07.038Z,100.00
2023-10-09T22:43:34.373Z,100.00
2023-10-09T22:46:01.488Z,100.00
2023-10-09T22:48:28.862Z,100.00
2023-10-09T22:51:11.763Z,100.00
2023-10-09T22:53:40.235Z,100.00
2023-10-09T22:56:14.182Z,100.00
2023-10-09T22:58:51.788Z,100.00
2023-10-09T23:01:24.393Z,100.00
2023-10-09T23:04:10.946Z,100.00
2023-10-09T23:06:41.921Z,100.00
2023-10-09T23:09:31.583Z,100.00
2023-10-09T23:12:00.652Z,100.00
2023-10-09T23:14:28.476Z,100.00
2023-10-09T23:17:06.813Z,100.00
2023-10-09T23:19:40.857Z,100.00
2023-10-09T23:22:12.591Z,100.00
2023-10-09T23:24:50.755Z,100.00
2023-10-09T23:27:43.989Z,100.00
2023-10-09T23:30:19.639Z,100.00
2023-10-09T23:32:50.062Z,100.00
2023-10-09T23:35:22.456Z,100.00
2023-10-09T23:38:10.130Z,100.00
2023-10-09T23:40:41.811Z,100.00
2023-10-09T23:43:14.803Z,100.00
2023-10-09T23:45:42.535Z,100.00
2023-10-09T23:48:24.715Z,100.00
2023-10-09T23:51:01.722Z,100.00
2023-10-09T23:53:35.246Z,100.00
2023-10-09T23:56:10.511Z,100.00
2023-10-09T23:58:38.429Z,100.00
